createdAt,value
2023-01-12T00:04:00.602Z,98022.75
2023-01-12T00:08:18.134Z,98021.97
2023-01-12T00:12:35.551Z,98019.53
2023-01-12T00:16:53.057Z,98024.22
2023-01-12T00:21:11.112Z,98022.09
2023-01-12T00:25:28.599Z,98031.41
2023-01-12T00:29:46.921Z,98029.81
2023-01-12T00:34:04.366Z,98035.22
2023-01-12T00:38:21.863Z,98033.97
2023-01-12T00:42:58.162Z,98035.13
2023-01-12T00:47:17.059Z,98039.41
2023-01-12T00:51:34.640Z,98045.88
2023-01-12T00:55:52.686Z,98043.63
2023-01-12T01:00:10.977Z,98035.41
2023-01-12T01:04:28.783Z,98042.94
2023-01-12T01:08:46.277Z,98047.44
2023-01-12T01:13:05.016Z,98045.34
2023-01-12T01:17:22.536Z,98032.22
2023-01-12T01:21:40.446Z,98036.84
2023-01-12T01:26:03.963Z,98028.34
2023-01-12T01:30:21.676Z,98037.78
2023-01-12T01:34:39.357Z,98044.38
2023-01-12T01:38:57.126Z,98038.16
2023-01-12T01:43:16.913Z,98043.75
2023-01-12T01:47:43.373Z,98043.75
2023-01-12T01:52:11.247Z,98061.72
2023-01-12T01:56:31.832Z,98064.31
2023-01-12T02:00:49.763Z,98073.09
2023-01-12T02:05:09.071Z,98070.84
2023-01-12T02:09:28.702Z,98064.00
2023-01-12T02:14:05.175Z,98058.19
2023-01-12T02:18:45.667Z,98066.34
2023-01-12T02:23:36.334Z,98077.28
2023-01-12T02:28:19.731Z,98058.00
2023-01-12T02:33:08.637Z,98064.44
2023-01-12T02:37:45.940Z,98059.31
2023-01-12T02:42:32.692Z,98068.28
2023-01-12T02:46:52.325Z,98059.59
2023-01-12T02:51:29.359Z,98059.16
2023-01-12T02:55:47.877Z,98056.13
2023-01-12T03:00:06.233Z,98063.00
2023-01-12T03:04:24.907Z,98057.53
2023-01-12T03:08:42.725Z,98063.66
2023-01-12T03:13:07.808Z,98068.47
2023-01-12T03:17:39.046Z,98074.22
2023-01-12T03:22:11.927Z,98070.69
2023-01-12T03:26:32.266Z,98077.56
2023-01-12T03:30:57.457Z,98077.75
2023-01-12T03:35:15.145Z,98083.69
2023-01-12T03:39:59.546Z,98084.84
2023-01-12T03:44:30.460Z,98070.56
2023-01-12T03:49:13.755Z,98083.88
2023-01-12T03:53:33.817Z,98084.84
2023-01-12T03:57:54.048Z,98083.06
2023-01-12T04:02:12.307Z,98096.84
2023-01-12T04:06:29.966Z,98099.09
2023-01-12T04:10:47.626Z,98090.13
2023-01-12T04:15:06.279Z,98094.81
2023-01-12T04:19:24.414Z,98095.56
2023-01-12T04:23:41.971Z,98084.03
2023-01-12T04:28:04.020Z,98085.47
2023-01-12T04:32:21.927Z,98099.09
2023-01-12T04:36:42.028Z,98087.56
2023-01-12T04:40:59.659Z,98088.22
2023-01-12T04:45:17.481Z,98085.47
2023-01-12T04:49:35.312Z,98090.59
2023-01-12T04:53:53.366Z,98096.44
2023-01-12T04:58:11.056Z,98099.44
2023-01-12T05:02:28.738Z,98099.09
2023-01-12T05:06:46.013Z,98091.72
2023-01-12T05:11:03.591Z,98101.19
2023-01-12T05:15:22.302Z,98102.31
2023-01-12T05:19:39.847Z,98112.59
2023-01-12T05:23:57.460Z,98116.09
2023-01-12T05:28:15.793Z,98108.56
2023-01-12T05:32:38.570Z,98120.63
2023-01-12T05:36:56.140Z,98114.72
2023-01-12T05:41:14.859Z,98117.75
2023-01-12T05:45:32.277Z,98114.78
2023-01-12T05:49:49.950Z,98125.28
2023-01-12T05:54:07.505Z,98133.63
2023-01-12T05:58:25.906Z,98125.28
2023-01-12T06:02:43.446Z,98132.81
2023-01-12T06:07:01.286Z,98144.25
2023-01-12T06:11:38.439Z,98140.03
2023-01-12T06:16:05.746Z,98144.84
2023-01-12T06:20:23.381Z,98154.50
2023-01-12T06:24:41.173Z,98154.63
2023-01-12T06:28:58.834Z,98152.41
2023-01-12T06:33:16.615Z,98158.50
2023-01-12T06:37:34.279Z,98164.59
2023-01-12T06:42:10.732Z,98159.13
2023-01-12T06:46:28.858Z,98176.94
2023-01-12T06:50:46.553Z,98163.31
2023-01-12T06:55:04.861Z,98162.69
2023-01-12T06:59:22.364Z,98179.53
2023-01-12T07:03:40.365Z,98171.22
2023-01-12T07:08:00.729Z,98165.25
2023-01-12T07:12:18.485Z,98166.84
2023-01-12T07:16:37.599Z,98163.00
2023-01-12T07:20:55.172Z,98165.88
2023-01-12T07:25:12.678Z,98186.28
2023-01-12T07:29:30.886Z,98196.38
2023-01-12T07:33:53.171Z,98189.28
2023-01-12T07:38:11.070Z,98177.69
2023-01-12T07:42:28.830Z,98188.47
2023-01-12T07:46:46.708Z,98192.84
2023-01-12T07:51:04.458Z,98195.72
2023-01-12T07:55:22.269Z,98208.88
2023-01-12T07:59:40.047Z,98203.28
2023-01-12T08:03:57.731Z,98191.69
2023-01-12T08:08:15.436Z,98201.47
2023-01-12T08:12:32.981Z,98205.63
2023-01-12T08:16:51.246Z,98195.34
2023-01-12T08:21:14.861Z,98202.53
2023-01-12T08:25:38.871Z,98207.75
2023-01-12T08:30:00.360Z,98213.25
2023-01-12T08:34:18.053Z,98206.63
2023-01-12T08:38:35.964Z,98207.25
2023-01-12T08:42:53.424Z,98216.41
2023-01-12T08:47:30.607Z,98216.88
2023-01-12T08:51:48.225Z,98225.53
2023-01-12T08:56:07.453Z,98225.63
2023-01-12T09:00:25.211Z,98224.41
2023-01-12T09:04:42.739Z,98219.31
2023-01-12T09:09:08.487Z,98211.75
2023-01-12T09:13:26.141Z,98209.66
2023-01-12T09:17:45.935Z,98211.75
2023-01-12T09:22:03.482Z,98213.44
2023-01-12T09:26:31.703Z,98212.66
2023-01-12T09:30:49.421Z,98210.06
2023-01-12T09:35:07.888Z,98207.16
2023-01-12T09:39:28.258Z,98202.03
2023-01-12T09:44:05.703Z,98192.88
2023-01-12T09:48:24.269Z,98181.56
2023-01-12T09:53:06.077Z,98178.81
2023-01-12T09:57:58.082Z,98184.81
2023-01-12T10:02:16.206Z,98188.31
2023-01-12T10:06:36.098Z,98187.78
2023-01-12T10:11:29.010Z,98182.91
2023-01-12T10:16:03.309Z,98164.53
2023-01-12T10:20:42.566Z,98152.97
2023-01-12T10:25:00.418Z,98141.28
2023-01-12T10:29:18.002Z,98147.81
2023-01-12T10:33:36.425Z,98137.19
2023-01-12T10:37:55.847Z,98144.13
2023-01-12T10:42:36.290Z,98136.13
2023-01-12T10:47:17.263Z,98128.66
2023-01-12T10:51:36.355Z,98144.81
2023-01-12T10:55:55.716Z,98145.44
2023-01-12T11:00:26.417Z,98139.13
2023-01-12T11:04:52.813Z,98124.72
2023-01-12T11:09:23.171Z,98125.03
2023-01-12T11:13:41.002Z,98114.06
2023-01-12T11:18:42.157Z,98138.78
2023-01-12T11:23:04.046Z,98119.84
2023-01-12T11:27:46.972Z,98118.50
2023-01-12T11:32:17.200Z,98124.41
2023-01-12T11:36:42.812Z,98119.81
2023-01-12T11:41:00.846Z,98136.59
2023-01-12T11:45:28.684Z,98163.75
2023-01-12T11:50:18.676Z,98110.22
2023-01-12T11:54:38.922Z,98079.34
2023-01-12T11:59:32.771Z,98081.06
2023-01-12T12:04:00.145Z,98093.34
2023-01-12T12:08:22.865Z,98086.56
2023-01-12T12:13:04.549Z,98081.19
2023-01-12T12:17:45.258Z,98080.84
2023-01-12T12:23:04.864Z,98064.97
2023-01-12T12:27:37.947Z,98058.06
2023-01-12T12:32:10.658Z,98095.47
2023-01-12T12:36:39.502Z,98099.22
2023-01-12T12:42:02.513Z,98084.38
2023-01-12T12:46:40.761Z,98041.94
2023-01-12T12:51:07.259Z,98062.22
2023-01-12T12:55:25.579Z,98094.91
2023-01-12T13:00:00.339Z,98099.13
2023-01-12T13:04:43.360Z,98107.41
2023-01-12T13:09:16.666Z,98134.44
2023-01-12T13:13:37.595Z,98130.56
2023-01-12T13:17:55.983Z,98069.44
2023-01-12T13:22:32.558Z,98053.41
2023-01-12T13:26:52.887Z,98056.72
2023-01-12T13:31:31.726Z,98026.38
2023-01-12T13:35:49.150Z,98016.72
2023-01-12T13:40:19.986Z,98012.78
2023-01-12T13:44:42.256Z,98008.03
2023-01-12T13:49:01.078Z,97997.97
2023-01-12T13:53:28.616Z,97994.63
2023-01-12T13:57:57.461Z,97986.09
2023-01-12T14:02:18.829Z,97993.19
2023-01-12T14:07:40.345Z,97980.06
2023-01-12T14:12:19.146Z,97973.84
2023-01-12T14:17:04.701Z,97975.97
2023-01-12T14:21:28.253Z,97967.00
2023-01-12T14:26:02.525Z,97956.63
2023-01-12T14:30:22.234Z,97954.22
2023-01-12T14:34:47.131Z,97957.50
2023-01-12T14:39:14.753Z,97953.16
2023-01-12T14:43:53.604Z,97948.38
2023-01-12T14:48:24.192Z,97940.22
2023-01-12T14:52:45.354Z,97943.78
2023-01-12T14:57:26.237Z,97945.69
2023-01-12T15:02:07.799Z,97952.81
2023-01-12T15:06:25.705Z,97948.63
2023-01-12T15:10:44.545Z,97951.81
2023-01-12T15:16:02.713Z,97943.84
2023-01-12T15:20:39.217Z,97950.56
2023-01-12T15:25:16.833Z,97952.16
2023-01-12T15:29:34.739Z,97948.28
2023-01-12T15:33:52.614Z,97953.41
2023-01-12T15:38:13.802Z,97961.66
2023-01-12T15:42:31.284Z,97958.09
2023-01-12T15:46:49.068Z,97950.72
2023-01-12T15:51:10.463Z,97956.19
2023-01-12T15:55:31.699Z,97951.66
2023-01-12T15:59:49.192Z,97943.97
2023-01-12T16:04:40.978Z,97946.25
2023-01-12T16:08:51.885Z,97952.19
2023-01-12T16:13:12.240Z,97957.50
2023-01-12T16:17:29.875Z,97960.25
2023-01-12T16:21:48.023Z,97959.81
2023-01-12T16:26:07.052Z,97959.91
2023-01-12T16:30:25.169Z,97948.91
2023-01-12T16:34:43.016Z,97950.66
2023-01-12T16:39:00.542Z,97956.78
2023-01-12T16:43:21.446Z,97951.81
2023-01-12T16:47:38.952Z,97945.00
2023-01-12T16:51:57.124Z,97948.75
2023-01-12T16:56:16.681Z,97937.38
2023-01-12T17:00:34.496Z,97933.03
2023-01-12T17:04:52.661Z,97920.03
2023-01-12T17:09:10.594Z,97915.97
2023-01-12T17:13:39.199Z,97906.22
2023-01-12T17:18:00.596Z,97912.16
2023-01-12T17:22:18.868Z,97907.66
2023-01-12T17:26:39.235Z,97905.69
2023-01-12T17:30:58.267Z,97895.22
2023-01-12T17:35:15.930Z,97911.53
2023-01-12T17:39:35.162Z,97909.59
2023-01-12T17:43:52.906Z,97910.56
2023-01-12T17:48:12.319Z,97901.69
2023-01-12T17:52:29.790Z,97903.13
2023-01-12T17:56:47.909Z,97900.28
2023-01-12T18:01:12.981Z,97893.03
2023-01-12T18:05:31.538Z,97893.19
2023-01-12T18:09:49.110Z,97897.25
2023-01-12T18:14:08.928Z,97905.56
2023-01-12T18:18:26.696Z,97895.50
2023-01-12T18:22:45.018Z,97888.50
2023-01-12T18:27:03.154Z,97878.25
2023-01-12T18:31:24.224Z,97882.31
2023-01-12T18:35:42.114Z,97882.91
2023-01-12T18:39:59.615Z,97884.25
2023-01-12T18:44:17.896Z,97880.19
2023-01-12T18:48:35.632Z,97878.50
2023-01-12T18:53:11.865Z,97873.19
2023-01-12T18:57:32.857Z,97865.47
2023-01-12T19:01:50.536Z,97862.31
2023-01-12T19:06:38.559Z,97860.00
2023-01-12T19:11:08.422Z,97863.09
2023-01-12T19:15:44.906Z,97868.56
2023-01-12T19:20:10.085Z,97859.72
2023-01-12T19:24:46.877Z,97869.03
2023-01-12T19:29:04.380Z,97869.69
2023-01-12T19:33:23.380Z,97858.63
2023-01-12T19:37:46.058Z,97871.31
2023-01-12T19:42:22.872Z,97869.69
2023-01-12T19:46:40.570Z,97861.84
2023-01-12T19:51:10.295Z,97860.75
2023-01-12T19:55:28.253Z,97853.06
2023-01-12T19:59:48.556Z,97854.38
2023-01-12T20:04:06.087Z,97860.94
2023-01-12T20:08:25.534Z,97855.16
2023-01-12T20:12:43.414Z,97851.47
2023-01-12T20:17:00.948Z,97855.34
2023-01-12T20:21:18.743Z,97852.00
2023-01-12T20:25:36.448Z,97849.63
2023-01-12T20:29:54.268Z,97842.84
2023-01-12T20:34:13.462Z,97845.44
2023-01-12T20:38:31.570Z,97840.75
2023-01-12T20:42:49.088Z,97845.34
2023-01-12T20:47:06.997Z,97844.38
2023-01-12T20:51:24.779Z,97845.94
2023-01-12T20:55:50.786Z,97850.94
2023-01-12T21:00:10.465Z,97841.47
2023-01-12T21:04:28.093Z,97849.22
2023-01-12T21:08:47.343Z,97848.53
2023-01-12T21:13:06.103Z,97853.38
2023-01-12T21:17:23.667Z,97848.06
2023-01-12T21:21:41.387Z,97857.53
2023-01-12T21:25:59.521Z,97842.94
2023-01-12T21:30:17.687Z,97844.88
2023-01-12T21:34:42.361Z,97851.16
2023-01-12T21:39:00.022Z,97849.38
2023-01-12T21:43:18.548Z,97839.41
2023-01-12T21:47:35.981Z,97843.91
2023-01-12T21:51:53.576Z,97852.84
2023-01-12T21:56:13.333Z,97844.09
2023-01-12T22:00:31.036Z,97832.88
2023-01-12T22:04:48.728Z,97820.66
2023-01-12T22:09:06.223Z,97822.91
2023-01-12T22:13:23.808Z,97822.84
2023-01-12T22:17:41.956Z,97824.41
2023-01-12T22:21:59.697Z,97826.34
2023-01-12T22:26:18.816Z,97819.97
2023-01-12T22:30:36.611Z,97817.31
2023-01-12T22:34:58.681Z,97806.56
2023-01-12T22:39:16.398Z,97809.16
2023-01-12T22:43:40.556Z,97812.25
2023-01-12T22:47:58.247Z,97800.66
2023-01-12T22:52:15.927Z,97803.41
2023-01-12T22:56:33.421Z,97796.31
2023-01-12T23:00:54.158Z,97800.91
2023-01-12T23:05:11.659Z,97796.50
2023-01-12T23:09:29.255Z,97790.56
2023-01-12T23:13:47.450Z,97799.34
2023-01-12T23:18:06.904Z,97800.13
2023-01-12T23:22:24.552Z,97807.38
2023-01-12T23:26:42.109Z,97806.56
2023-01-12T23:31:12.081Z,97799.84
2023-01-12T23:35:35.561Z,97790.19
2023-01-12T23:39:53.179Z,97789.84
2023-01-12T23:44:11.077Z,97789.50
2023-01-12T23:48:29.880Z,97790.84
2023-01-12T23:52:50.490Z,97798.53
2023-01-12T23:57:08.104Z,97785.84
